UAE58Q OMDB-EDDL
Flight info
| Callsign | UAE58Q |
|---|---|
| Flight time | N/A |
| Altitude | 36000 |
| Route | ANVIX R401 GIDIS G783 ELUDA DCT UKRAG DCT RIBOT/N0463F280 M550 MEVDO Y511 ITRUX/N0499F360 Y511 PMA V10 PEGUR Z712 SIGRO/N0497F380 Z712 WEJ L677 CVO L617 TANSA DCT KOR UL613 XANIS DCT DIMIS DCT EMKES DCT EDALA/N0490F400 DCT KOMAR DCT PODET DCT SIMBA DCT TESDU DCT AMETU T852 TINSA T854 DOMUX DOMUX1A |
| Aircraft | A388/J-SADE2E3FGHIJ3J4J5M1RWXY/LB1D1 |
Departure
| Time | 2026-05-07 12:43 |
|---|---|
| Airport | Dubai International Airport (OMDB) |
Arrival
| Time | N/A |
|---|---|
| Airport | Düsseldorf Airport (EDDL) |
| Time | Latitude | Longitude | Altitude | Speed | Heading |
|---|---|---|---|---|---|
| 2026-05-07 12:08 | 25.24146 | 55.37323 | 31 ft | 0 kts | 31° |
| 2026-05-07 12:33 | 25.24145 | 55.37322 | 26 ft | 1 kts | 31° |
| 2026-05-07 12:33 | 25.24125 | 55.37309 | 28 ft | 4 kts | 30° |
| 2026-05-07 12:34 | 25.24101 | 55.37295 | 31 ft | 4 kts | 27° |
| 2026-05-07 12:34 | 25.24087 | 55.37285 | 31 ft | 4 kts | 64° |
| 2026-05-07 12:34 | 25.24081 | 55.37262 | 31 ft | 4 kts | 88° |
| 2026-05-07 12:34 | 25.24085 | 55.37240 | 31 ft | 4 kts | 121° |
| 2026-05-07 12:35 | 25.24099 | 55.37218 | 31 ft | 1 kts | 122° |
| 2026-05-07 12:35 | 25.24099 | 55.37217 | 31 ft | 0 kts | 122° |
| 2026-05-07 12:38 | 25.24092 | 55.37230 | 26 ft | 15 kts | 121° |
| 2026-05-07 12:38 | 25.24023 | 55.37364 | 29 ft | 19 kts | 126° |
| 2026-05-07 12:39 | 25.23969 | 55.37498 | 26 ft | 20 kts | 89° |
| 2026-05-07 12:39 | 25.24037 | 55.37621 | 29 ft | 20 kts | 33° |
| 2026-05-07 12:39 | 25.24161 | 55.37705 | 27 ft | 21 kts | 31° |
| 2026-05-07 12:39 | 25.24294 | 55.37796 | 26 ft | 28 kts | 33° |
| 2026-05-07 12:40 | 25.24397 | 55.37869 | 28 ft | 13 kts | 27° |
| 2026-05-07 12:40 | 25.24499 | 55.37950 | 30 ft | 21 kts | 33° |
| 2026-05-07 12:40 | 25.24618 | 55.37981 | 27 ft | 17 kts | 327° |
| 2026-05-07 12:40 | 25.24709 | 55.37984 | 28 ft | 4 kts | 29° |
| 2026-05-07 12:41 | 25.24709 | 55.37985 | 28 ft | 0 kts | 29° |
| 2026-05-07 12:41 | 25.24714 | 55.37988 | 28 ft | 8 kts | 29° |
| 2026-05-07 12:41 | 25.24817 | 55.37997 | 30 ft | 14 kts | 322° |
| 2026-05-07 12:42 | 25.24898 | 55.37860 | 31 ft | 46 kts | 303° |
| 2026-05-07 12:42 | 25.25193 | 55.37331 | 32 ft | 113 kts | 301° |
| 2026-05-07 12:42 | 25.25689 | 55.36429 | 30 ft | 158 kts | 301° |
| 2026-05-07 12:42 | 25.26317 | 55.35311 | 114 ft | 179 kts | 301° |
| 2026-05-07 12:43 | 25.26946 | 55.34172 | 627 ft | 171 kts | 299° |
| 2026-05-07 12:43 | 25.27599 | 55.33019 | 829 ft | 187 kts | 301° |
| 2026-05-07 12:43 | 25.28324 | 55.31744 | 1148 ft | 204 kts | 298° |
| 2026-05-07 12:43 | 25.28928 | 55.30255 | 1469 ft | 219 kts | 286° |
| 2026-05-07 12:44 | 25.29080 | 55.28580 | 2042 ft | 224 kts | 260° |
| 2026-05-07 12:44 | 25.28513 | 55.26941 | 2475 ft | 232 kts | 245° |
| 2026-05-07 12:44 | 25.27797 | 55.25315 | 3003 ft | 237 kts | 245° |
| 2026-05-07 12:44 | 25.27083 | 55.23665 | 3601 ft | 238 kts | 245° |
| 2026-05-07 12:45 | 25.26368 | 55.22000 | 4132 ft | 241 kts | 246° |
| 2026-05-07 12:45 | 25.25655 | 55.20315 | 4724 ft | 242 kts | 246° |
| 2026-05-07 12:45 | 25.24934 | 55.18625 | 5282 ft | 245 kts | 242° |
| 2026-05-07 12:45 | 25.23836 | 55.17242 | 5815 ft | 250 kts | 214° |
| 2026-05-07 12:46 | 25.22203 | 55.16595 | 6356 ft | 256 kts | 185° |
| 2026-05-07 12:46 | 25.20421 | 55.16664 | 6729 ft | 268 kts | 173° |
| 2026-05-07 12:46 | 25.18602 | 55.17385 | 6781 ft | 292 kts | 147° |
| 2026-05-07 12:46 | 25.17121 | 55.19000 | 6783 ft | 312 kts | 123° |
| 2026-05-07 12:47 | 25.16052 | 55.21206 | 6778 ft | 333 kts | 114° |
| 2026-05-07 12:47 | 25.15097 | 55.23604 | 6918 ft | 346 kts | 114° |
| 2026-05-07 12:47 | 25.14119 | 55.25960 | 7622 ft | 331 kts | 115° |
| 2026-05-07 12:47 | 25.13127 | 55.28180 | 8665 ft | 314 kts | 117° |
| 2026-05-07 12:48 | 25.12161 | 55.30262 | 9459 ft | 307 kts | 117° |
| 2026-05-07 12:48 | 25.11169 | 55.32355 | 10031 ft | 307 kts | 118° |
| 2026-05-07 12:48 | 25.10228 | 55.34475 | 10592 ft | 308 kts | 114° |
| 2026-05-07 12:48 | 25.09353 | 55.36626 | 11183 ft | 308 kts | 115° |
| 2026-05-07 12:49 | 25.08490 | 55.38728 | 11771 ft | 308 kts | 115° |
| 2026-05-07 12:49 | 25.07600 | 55.40884 | 12389 ft | 308 kts | 115° |
| 2026-05-07 12:49 | 25.06714 | 55.43046 | 12849 ft | 315 kts | 114° |
| 2026-05-07 12:49 | 25.05863 | 55.45237 | 12988 ft | 330 kts | 114° |
| 2026-05-07 12:50 | 25.04970 | 55.47590 | 13135 ft | 345 kts | 114° |
| 2026-05-07 12:50 | 25.04019 | 55.50089 | 13280 ft | 360 kts | 114° |
| 2026-05-07 12:50 | 25.03038 | 55.52664 | 13698 ft | 365 kts | 113° |
| 2026-05-07 12:50 | 25.02025 | 55.55243 | 14204 ft | 368 kts | 116° |
| 2026-05-07 12:51 | 25.00777 | 55.57669 | 14725 ft | 370 kts | 122° |
| 2026-05-07 12:51 | 24.99438 | 55.60109 | 15224 ft | 373 kts | 121° |
| 2026-05-07 12:51 | 24.98104 | 55.62569 | 15731 ft | 375 kts | 121° |
| 2026-05-07 12:51 | 24.96763 | 55.65053 | 16214 ft | 378 kts | 121° |
| 2026-05-07 12:52 | 24.95419 | 55.67544 | 16696 ft | 380 kts | 121° |
| 2026-05-07 12:52 | 24.94042 | 55.70053 | 17189 ft | 382 kts | 123° |
| 2026-05-07 12:52 | 24.92480 | 55.72437 | 17632 ft | 385 kts | 126° |
| 2026-05-07 12:52 | 24.90884 | 55.74827 | 18091 ft | 387 kts | 126° |
| 2026-05-07 12:53 | 24.89289 | 55.77228 | 18520 ft | 390 kts | 126° |
| 2026-05-07 12:53 | 24.87683 | 55.79649 | 18935 ft | 393 kts | 126° |
| 2026-05-07 12:53 | 24.86064 | 55.82093 | 19308 ft | 396 kts | 126° |
| 2026-05-07 12:53 | 24.84435 | 55.84549 | 19703 ft | 399 kts | 126° |
| 2026-05-07 12:54 | 24.82784 | 55.87024 | 20078 ft | 402 kts | 126° |
| 2026-05-07 12:54 | 24.81101 | 55.89498 | 20434 ft | 405 kts | 129° |
| 2026-05-07 12:54 | 24.79065 | 55.91638 | 20816 ft | 408 kts | 144° |
| 2026-05-07 12:54 | 24.76564 | 55.93114 | 21188 ft | 410 kts | 160° |
| 2026-05-07 12:55 | 24.73778 | 55.93819 | 21515 ft | 414 kts | 175° |
| 2026-05-07 12:55 | 24.70929 | 55.93825 | 21874 ft | 415 kts | 182° |
| 2026-05-07 12:55 | 24.68033 | 55.93676 | 22237 ft | 417 kts | 183° |
| 2026-05-07 12:55 | 24.65121 | 55.93528 | 22567 ft | 420 kts | 182° |
| 2026-05-07 12:56 | 24.62210 | 55.93229 | 22888 ft | 421 kts | 193° |
| 2026-05-07 12:56 | 24.59439 | 55.92202 | 23237 ft | 422 kts | 207° |
| 2026-05-07 12:56 | 24.56967 | 55.90458 | 23524 ft | 424 kts | 221° |
| 2026-05-07 12:56 | 24.54760 | 55.88296 | 23844 ft | 426 kts | 222° |
| 2026-05-07 12:57 | 24.52538 | 55.86139 | 24189 ft | 427 kts | 221° |
| 2026-05-07 12:57 | 24.50298 | 55.83982 | 24520 ft | 429 kts | 221° |
| 2026-05-07 12:57 | 24.48049 | 55.81823 | 24886 ft | 429 kts | 221° |
| 2026-05-07 12:57 | 24.45795 | 55.79661 | 25192 ft | 431 kts | 222° |
| 2026-05-07 12:58 | 24.44307 | 55.78230 | 25413 ft | 431 kts | 222° |
| 2026-05-07 12:58 | 24.42037 | 55.76048 | 25720 ft | 433 kts | 222° |
| 2026-05-07 12:58 | 24.39766 | 55.73867 | 26075 ft | 434 kts | 222° |
| 2026-05-07 12:58 | 24.37485 | 55.71677 | 26391 ft | 436 kts | 222° |
| 2026-05-07 12:59 | 24.35199 | 55.69481 | 26775 ft | 437 kts | 222° |
| 2026-05-07 12:59 | 24.32909 | 55.67283 | 27133 ft | 438 kts | 222° |
| 2026-05-07 12:59 | 24.30639 | 55.65108 | 27441 ft | 440 kts | 222° |
| 2026-05-07 12:59 | 24.28294 | 55.62953 | 27831 ft | 442 kts | 217° |
| 2026-05-07 13:00 | 24.25680 | 55.61139 | 28205 ft | 445 kts | 209° |
| 2026-05-07 13:00 | 24.22838 | 55.59749 | 28546 ft | 449 kts | 201° |
| 2026-05-07 13:00 | 24.19831 | 55.58785 | 28942 ft | 451 kts | 197° |
| 2026-05-07 13:00 | 24.16788 | 55.57897 | 29285 ft | 454 kts | 197° |
| 2026-05-07 13:01 | 24.13733 | 55.56985 | 29674 ft | 456 kts | 198° |
| 2026-05-07 13:01 | 24.10668 | 55.56065 | 30061 ft | 457 kts | 198° |
| 2026-05-07 13:01 | 24.07588 | 55.55140 | 30425 ft | 460 kts | 198° |
| 2026-05-07 13:01 | 24.04491 | 55.54212 | 30807 ft | 462 kts | 198° |
| 2026-05-07 13:02 | 24.01418 | 55.53294 | 31120 ft | 465 kts | 198° |
| 2026-05-07 13:02 | 23.98278 | 55.52357 | 31487 ft | 467 kts | 198° |
| 2026-05-07 13:02 | 23.95126 | 55.51420 | 31819 ft | 470 kts | 198° |
| 2026-05-07 13:02 | 23.91958 | 55.50480 | 32155 ft | 472 kts | 198° |
| 2026-05-07 13:03 | 23.88785 | 55.49538 | 32502 ft | 475 kts | 198° |
| 2026-05-07 13:03 | 23.85584 | 55.48590 | 32817 ft | 477 kts | 198° |
| 2026-05-07 13:03 | 23.82371 | 55.47637 | 33163 ft | 479 kts | 198° |
| 2026-05-07 13:03 | 23.79149 | 55.46680 | 33478 ft | 482 kts | 198° |
| 2026-05-07 13:04 | 23.75945 | 55.45728 | 33797 ft | 484 kts | 198° |
| 2026-05-07 13:04 | 23.72687 | 55.44759 | 34117 ft | 486 kts | 198° |
| 2026-05-07 13:04 | 23.69422 | 55.43788 | 34440 ft | 488 kts | 198° |
| 2026-05-07 13:04 | 23.66142 | 55.42816 | 34864 ft | 487 kts | 198° |
| 2026-05-07 13:05 | 23.62904 | 55.41764 | 35309 ft | 484 kts | 204° |
| 2026-05-07 13:05 | 23.59881 | 55.40202 | 35693 ft | 480 kts | 213° |
| 2026-05-07 13:05 | 23.57141 | 55.38134 | 35813 ft | 478 kts | 222° |
| 2026-05-07 13:05 | 23.54758 | 55.35609 | 35816 ft | 478 kts | 231° |
| 2026-05-07 13:06 | 23.51270 | 55.29502 | 35813 ft | 475 kts | 249° |
| 2026-05-07 13:06 | 23.49709 | 55.22546 | 35817 ft | 474 kts | 263° |
| 2026-05-07 13:07 | 23.48911 | 55.15456 | 35807 ft | 475 kts | 262° |
| 2026-05-07 13:07 | 23.48074 | 55.08319 | 35803 ft | 475 kts | 262° |
| 2026-05-07 13:08 | 23.47239 | 55.01189 | 35804 ft | 475 kts | 262° |
| 2026-05-07 13:08 | 23.46403 | 54.94052 | 35805 ft | 474 kts | 262° |
| 2026-05-07 13:09 | 23.45564 | 54.86919 | 35801 ft | 474 kts | 262° |
| 2026-05-07 13:09 | 23.44721 | 54.79790 | 35803 ft | 474 kts | 262° |
| 2026-05-07 13:10 | 23.43878 | 54.72712 | 35798 ft | 474 kts | 262° |
| 2026-05-07 13:10 | 23.43033 | 54.65595 | 35797 ft | 474 kts | 262° |
| 2026-05-07 13:11 | 23.42184 | 54.58483 | 35776 ft | 474 kts | 262° |
| 2026-05-07 13:11 | 23.41330 | 54.51366 | 35778 ft | 474 kts | 262° |